Time;durP1;ratioP1;P1;durP2;ratioP2;P2;SDS_P1;SDS_P2;PMS_P1;PMS_P2;Temp;Humidity;BMP_temperature;BMP_pressure;BME280_temperature;BME280_humidity;BME280_pressure;Samples;Min_cycle;Max_cycle;Signal;HPM_P1;HPM_P2
2022/11/22 00:02:19;;;;;;;18.38;9.80;;;3.10;99.90;;;;;;5157117;27;20105;-68
2022/11/22 00:04:44;;;;;;;15.65;9.35;;;3.40;99.90;;;;;;5122129;27;20042;-68
2022/11/22 00:07:10;;;;;;;15.30;8.15;;;3.50;99.90;;;;;;5138607;27;20050;-68
2022/11/22 00:09:36;;;;;;;17.92;9.45;;;3.10;99.90;;;;;;5157555;27;20056;-68
2022/11/22 00:12:01;;;;;;;18.40;9.63;;;3.40;99.90;;;;;;5138975;27;20046;-68
2022/11/22 00:14:27;;;;;;;18.00;10.05;;;3.00;99.90;;;;;;5157554;27;20039;-68
2022/11/22 00:16:53;;;;;;;18.90;8.73;;;3.10;99.90;;;;;;5105151;27;20050;-68
2022/11/22 00:19:19;;;;;;;18.90;9.73;;;3.00;99.90;;;;;;5157485;27;20054;-68
2022/11/22 00:21:44;;;;;;;18.35;9.55;;;3.20;99.90;;;;;;5157363;27;20116;-68
2022/11/22 00:24:13;;;;;;;22.00;10.45;;;3.30;99.90;;;;;;5157271;27;20046;-68
2022/11/22 00:26:39;;;;;;;18.08;9.52;;;3.00;99.90;;;;;;5157328;27;20046;-68
2022/11/22 00:29:05;;;;;;;20.00;10.73;;;3.00;99.90;;;;;;5104906;27;20042;-68
2022/11/22 00:31:31;;;;;;;18.17;10.00;;;2.90;99.90;;;;;;5156562;27;20118;-68
2022/11/22 00:33:57;;;;;;;20.83;9.65;;;3.00;99.90;;;;;;5157134;27;20097;-68
2022/11/22 00:36:23;;;;;;;19.48;9.95;;;3.10;99.90;;;;;;5157106;27;20074;-68
2022/11/22 00:38:48;;;;;;;21.00;11.25;;;3.80;99.90;;;;;;5138512;27;20055;-68
2022/11/22 00:41:14;;;;;;;22.10;10.10;;;3.70;99.90;;;;;;5156871;27;20111;-67
2022/11/22 00:43:40;;;;;;;20.40;10.73;;;3.50;99.90;;;;;;5156840;27;20039;-68
2022/11/22 00:46:05;;;;;;;24.38;11.13;;;3.10;99.90;;;;;;5156883;27;20379;-68
2022/11/22 00:48:31;;;;;;;22.05;10.95;;;3.40;99.90;;;;;;5156960;27;20051;-68
2022/11/22 00:50:57;;;;;;;22.05;10.57;;;3.50;99.90;;;;;;5156473;27;20059;-68
2022/11/22 00:53:23;;;;;;;24.70;12.27;;;3.60;99.90;;;;;;5138417;27;20050;-68
2022/11/22 00:55:48;;;;;;;21.40;10.85;;;3.40;99.90;;;;;;5138625;27;20059;-68
2022/11/22 00:58:14;;;;;;;21.92;11.13;;;3.90;99.90;;;;;;5156614;27;20126;-68
2022/11/22 01:00:40;;;;;;;22.38;12.35;;;3.00;99.90;;;;;;5156629;27;20042;-68
2022/11/22 01:03:09;;;;;;;22.80;11.35;;;3.70;99.90;;;;;;5156015;27;20436;-68
2022/11/22 01:05:34;;;;;;;24.75;11.57;;;3.00;99.90;;;;;;5138338;27;20054;-69
2022/11/22 01:08:00;;;;;;;20.15;11.65;;;3.30;99.90;;;;;;5137642;27;20047;-68
2022/11/22 01:10:25;;;;;;;26.38;12.23;;;2.90;99.90;;;;;;5156418;27;20035;-68
2022/11/22 01:12:51;;;;;;;23.25;12.35;;;3.00;99.90;;;;;;5156334;27;20434;-68
2022/11/22 01:15:17;;;;;;;23.67;11.52;;;3.30;99.90;;;;;;5156308;27;20394;-68
2022/11/22 01:17:43;;;;;;;23.20;11.57;;;3.00;99.90;;;;;;5137702;27;20050;-68
2022/11/22 01:20:09;;;;;;;22.23;13.13;;;3.00;99.90;;;;;;5156287;27;20053;-68
2022/11/22 01:22:34;;;;;;;24.73;11.48;;;2.90;99.90;;;;;;5156428;27;20042;-67
2022/11/22 01:25:00;;;;;;;22.77;11.25;;;3.00;99.90;;;;;;5155906;27;20363;-68
2022/11/22 01:27:26;;;;;;;21.85;12.10;;;4.00;99.90;;;;;;5156374;27;20050;-68
2022/11/22 01:29:51;;;;;;;21.60;10.95;;;3.30;99.90;;;;;;5156385;27;20046;-68
2022/11/22 01:32:17;;;;;;;23.02;11.98;;;3.10;99.90;;;;;;5137471;27;20431;-68
2022/11/22 01:34:43;;;;;;;21.23;11.35;;;3.10;99.90;;;;;;5155881;27;20049;-68
2022/11/22 01:37:09;;;;;;;21.98;12.30;;;3.70;99.90;;;;;;5155937;27;20126;-68
2022/11/22 01:39:34;;;;;;;22.80;12.68;;;3.50;99.90;;;;;;5120414;27;20042;-68
2022/11/22 01:42:00;;;;;;;20.67;10.88;;;3.00;99.90;;;;;;5120059;27;20108;-68
2022/11/22 01:44:29;;;;;;;23.40;11.40;;;3.90;99.90;;;;;;5155689;27;20043;-68
2022/11/22 01:47:16;;;;;;;19.65;11.20;;;3.10;99.90;;;;;;5155690;27;20537;-68
2022/11/22 01:49:56;;;;;;;21.95;11.02;;;3.60;99.90;;;;;;5137646;27;20055;-68
2022/11/22 01:52:25;;;;;;;18.25;9.65;;;3.10;99.90;;;;;;5155262;27;20043;-68
2022/11/22 01:55:11;;;;;;;19.85;10.65;;;3.30;99.90;;;;;;5155586;27;20535;-68
2022/11/22 01:57:39;;;;;;;19.75;10.60;;;4.10;99.90;;;;;;5156094;27;20076;-68
2022/11/22 02:00:11;;;;;;;18.15;9.95;;;3.00;99.90;;;;;;5155786;27;20126;-68
2022/11/22 02:02:37;;;;;;;18.80;9.52;;;3.10;99.90;;;;;;5154891;27;20137;-68
2022/11/22 02:05:11;;;;;;;20.35;11.18;;;3.20;99.90;;;;;;5137212;27;20205;-68
2022/11/22 02:07:59;;;;;;;19.33;11.00;;;3.10;99.90;;;;;;5155587;27;20486;-67
2022/11/22 02:10:28;;;;;;;18.52;10.05;;;3.70;99.90;;;;;;5155318;27;20116;-68
2022/11/22 02:12:56;;;;;;;18.23;9.20;;;3.30;99.90;;;;;;5155249;27;20050;-68
2022/11/22 02:15:23;;;;;;;21.00;10.45;;;4.10;99.90;;;;;;5136702;27;20054;-68
2022/11/22 02:17:48;;;;;;;18.42;10.30;;;3.40;99.90;;;;;;5155264;27;20046;-68
2022/11/22 02:20:16;;;;;;;18.40;10.40;;;3.20;99.90;;;;;;5136989;27;20111;-68
2022/11/22 02:23:21;;;;;;;22.08;11.02;;;3.10;99.90;;;;;;5155144;27;20054;-68
2022/11/22 02:25:50;;;;;;;18.58;11.00;;;3.00;99.90;;;;;;5155216;27;20054;-68
2022/11/22 02:28:16;;;;;;;17.75;9.75;;;3.10;99.90;;;;;;5155171;27;20100;-68
2022/11/22 02:30:42;;;;;;;18.10;10.13;;;3.10;99.90;;;;;;5142752;27;20054;-68
2022/11/22 02:33:08;;;;;;;18.88;10.50;;;3.20;99.90;;;;;;5161198;27;20042;-68
2022/11/22 02:35:34;;;;;;;18.35;10.50;;;3.50;99.90;;;;;;5162015;27;20042;-68
2022/11/22 02:38:12;;;;;;;16.83;9.43;;;3.10;99.90;;;;;;5161910;27;20038;-68
2022/11/22 02:40:55;;;;;;;17.15;9.38;;;3.10;99.90;;;;;;5162087;27;20091;-68
2022/11/22 02:43:30;;;;;;;22.58;11.20;;;3.10;99.90;;;;;;5162813;27;20496;-68
2022/11/22 02:46:02;;;;;;;17.27;9.68;;;4.30;99.90;;;;;;5161959;27;20479;-68
2022/11/22 02:48:28;;;;;;;18.55;10.63;;;4.00;99.90;;;;;;5162049;27;20043;-69
2022/11/22 02:50:53;;;;;;;16.30;9.60;;;3.80;99.90;;;;;;5161660;27;20101;-68
2022/11/22 02:53:19;;;;;;;20.23;9.73;;;3.60;99.90;;;;;;5162181;27;20099;-68
2022/11/22 02:55:45;;;;;;;20.15;10.20;;;3.00;99.90;;;;;;5143771;27;20054;-71
2022/11/22 02:58:10;;;;;;;18.40;9.93;;;4.40;99.90;;;;;;5162251;27;20043;-68
2022/11/22 03:00:38;;;;;;;16.63;8.50;;;4.60;99.90;;;;;;5161913;27;20039;-68
2022/11/22 03:03:04;;;;;;;21.73;11.40;;;3.60;99.90;;;;;;5161265;27;20054;-68
2022/11/22 03:05:30;;;;;;;20.33;10.18;;;3.00;99.90;;;;;;5161816;27;20046;-68
2022/11/22 03:07:56;;;;;;;17.42;9.55;;;3.40;99.90;;;;;;5161817;27;20045;-68
2022/11/22 03:10:22;;;;;;;19.63;9.68;;;4.00;99.90;;;;;;5143525;27;20398;-68
2022/11/22 03:12:47;;;;;;;19.13;10.02;;;3.40;99.90;;;;;;5161800;27;20180;-68
2022/11/22 03:15:13;;;;;;;18.38;10.18;;;3.00;99.90;;;;;;5161793;27;20561;-69
2022/11/22 03:17:39;;;;;;;17.88;8.75;;;3.20;99.90;;;;;;5161699;27;20049;-68
2022/11/22 03:20:05;;;;;;;17.08;9.63;;;4.50;99.90;;;;;;5161695;27;20038;-69
2022/11/22 03:22:30;;;;;;;18.90;10.35;;;3.20;99.90;;;;;;5162063;27;20050;-68
2022/11/22 03:24:56;;;;;;;16.17;9.52;;;4.60;99.90;;;;;;5161497;27;20046;-68
2022/11/22 03:27:22;;;;;;;18.98;10.45;;;3.20;99.90;;;;;;5161610;27;20499;-69
2022/11/22 03:29:47;;;;;;;21.50;11.18;;;5.10;99.90;;;;;;5161302;27;20050;-69
2022/11/22 03:32:13;;;;;;;17.45;10.07;;;3.80;99.90;;;;;;5142769;27;20054;-69
2022/11/22 03:34:39;;;;;;;17.83;10.55;;;4.20;99.90;;;;;;5161550;27;20316;-69
2022/11/22 03:37:04;;;;;;;19.48;10.30;;;3.20;99.90;;;;;;5161483;27;20046;-68
2022/11/22 03:39:30;;;;;;;18.25;9.93;;;3.20;99.90;;;;;;5126213;27;20051;-68
2022/11/22 03:41:56;;;;;;;14.85;8.55;;;3.30;99.90;;;;;;5139198;27;20081;-68
2022/11/22 03:44:22;;;;;;;19.15;8.85;;;4.30;99.90;;;;;;5139997;27;20062;-69
2022/11/22 03:46:48;;;;;;;18.48;10.50;;;3.30;99.90;;;;;;5158564;27;20082;-69
2022/11/22 03:49:14;;;;;;;16.00;9.93;;;4.30;99.90;;;;;;5158387;27;20125;-69
2022/11/22 03:51:39;;;;;;;17.50;9.27;;;3.90;99.90;;;;;;5122260;27;20051;-68
2022/11/22 03:54:05;;;;;;;17.85;9.30;;;3.70;99.90;;;;;;5158372;27;20086;-68
2022/11/22 03:56:31;;;;;;;16.92;8.80;;;3.60;99.90;;;;;;5157906;27;20064;-69
2022/11/22 03:58:57;;;;;;;16.50;9.25;;;4.00;99.90;;;;;;5158047;27;20045;-68
2022/11/22 04:01:22;;;;;;;19.98;11.25;;;3.40;99.90;;;;;;5157251;27;20120;-69
2022/11/22 04:03:48;;;;;;;18.25;10.45;;;3.40;99.90;;;;;;5157782;27;20085;-68
2022/11/22 04:06:14;;;;;;;17.42;9.38;;;4.00;99.90;;;;;;5139503;27;20046;-68
2022/11/22 04:08:39;;;;;;;19.52;10.07;;;4.80;99.90;;;;;;5157700;27;20038;-69
2022/11/22 04:11:05;;;;;;;16.98;8.75;;;3.40;99.90;;;;;;5139402;27;20102;-68
2022/11/22 04:16:15;;;;;;;16.90;9.40;;;3.40;99.90;;;;;;5139316;27;20047;-68
2022/11/22 04:18:40;;;;;;;14.63;8.93;;;5.00;99.90;;;;;;5157467;27;20047;-68
2022/11/22 04:25:12;;;;;;;17.27;9.57;;;3.60;99.90;;;;;;5139039;27;20047;-68
2022/11/22 04:26:36;;;;;;;18.63;9.60;;;3.60;99.90;;;;;;5157423;27;20130;-68
2022/11/22 04:29:02;;;;;;;16.95;9.93;;;3.50;99.90;;;;;;5138869;27;20507;-68
2022/11/22 04:34:13;;;;;;;15.85;9.35;;;3.70;99.90;;;;;;5157713;27;20038;-68
2022/11/22 04:36:38;;;;;;;17.45;9.55;;;3.50;99.90;;;;;;5157240;27;20053;-68
2022/11/22 04:39:04;;;;;;;17.20;9.15;;;3.30;99.90;;;;;;5121569;27;20047;-68
2022/11/22 04:41:30;;;;;;;19.48;10.10;;;3.80;99.90;;;;;;5157009;27;20175;-68
2022/11/22 04:46:39;;;;;;;17.42;8.85;;;3.70;99.90;;;;;;5157000;27;20055;-67
2022/11/22 04:49:05;;;;;;;15.80;8.68;;;3.90;99.90;;;;;;5156946;27;20047;-68
2022/11/22 04:54:15;;;;;;;16.52;9.70;;;3.60;99.90;;;;;;5157663;27;20058;-67
2022/11/22 04:56:40;;;;;;;17.77;9.45;;;3.40;99.90;;;;;;5138591;27;20382;-67
2022/11/22 04:59:06;;;;;;;15.18;8.45;;;3.90;99.90;;;;;;5138195;27;20046;-68
2022/11/22 05:01:32;;;;;;;18.90;10.13;;;3.40;99.90;;;;;;5155999;27;20047;-68
2022/11/22 05:03:57;;;;;;;15.30;8.75;;;4.50;99.90;;;;;;5138175;27;20042;-68
2022/11/22 05:06:23;;;;;;;15.35;8.25;;;3.90;99.90;;;;;;5156618;27;20386;-68
2022/11/22 05:08:49;;;;;;;18.58;9.32;;;3.60;99.90;;;;;;5156580;27;20049;-68
2022/11/22 05:11:14;;;;;;;16.50;8.95;;;3.70;99.90;;;;;;5137974;27;20085;-67
2022/11/22 05:13:41;;;;;;;15.38;8.18;;;3.60;99.90;;;;;;5138196;27;20076;-67
2022/11/22 05:16:11;;;;;;;17.85;10.35;;;4.30;99.90;;;;;;5138440;27;20394;-67
2022/11/22 05:18:37;;;;;;;17.13;9.27;;;4.00;99.90;;;;;;5156325;27;20129;-68
2022/11/22 05:21:07;;;;;;;17.00;10.15;;;3.90;99.90;;;;;;5156231;27;20047;-67
2022/11/22 05:26:18;;;;;;;16.17;9.50;;;4.70;99.90;;;;;;5156638;27;20151;-67
2022/11/22 05:28:44;;;;;;;13.30;7.80;;;4.00;99.90;;;;;;5156537;27;20096;-67
2022/11/22 05:31:13;;;;;;;17.77;9.13;;;4.60;99.90;;;;;;5155575;27;20046;-68
2022/11/22 05:33:40;;;;;;;17.55;9.43;;;3.70;99.90;;;;;;5156024;27;20045;-67
2022/11/22 05:36:07;;;;;;;16.05;9.13;;;3.80;99.90;;;;;;5155993;27;20121;-67
2022/11/22 05:38:34;;;;;;;16.33;8.27;;;3.70;99.90;;;;;;5155933;27;20086;-67
2022/11/22 05:41:01;;;;;;;16.25;8.90;;;3.70;99.90;;;;;;5155957;27;20057;-67
2022/11/22 05:43:28;;;;;;;14.55;9.02;;;4.00;99.90;;;;;;5155769;27;20049;-67
2022/11/22 05:45:53;;;;;;;13.43;8.23;;;4.50;99.90;;;;;;5137626;27;20053;-67
2022/11/22 05:48:19;;;;;;;15.55;8.50;;;3.90;99.90;;;;;;5137863;27;20047;-67
2022/11/22 05:50:45;;;;;;;17.00;9.00;;;4.40;99.90;;;;;;5137299;27;20042;-67
2022/11/22 05:53:10;;;;;;;15.98;9.90;;;4.60;99.90;;;;;;5156474;27;20053;-67
2022/11/22 05:55:36;;;;;;;13.48;8.38;;;4.20;99.90;;;;;;5155635;27;20116;-67
2022/11/22 05:58:02;;;;;;;15.38;8.63;;;4.80;99.90;;;;;;5137208;27;20493;-67
2022/11/22 06:00:28;;;;;;;16.40;9.30;;;4.10;99.90;;;;;;5155833;27;20474;-67
2022/11/22 06:03:00;;;;;;;14.27;9.30;;;4.50;99.90;;;;;;5136827;27;20367;-67
2022/11/22 06:05:26;;;;;;;17.33;8.68;;;4.30;99.90;;;;;;5154844;27;20115;-67
2022/11/22 06:07:52;;;;;;;14.75;8.52;;;4.00;99.90;;;;;;5155445;27;20107;-67
2022/11/22 06:10:18;;;;;;;14.80;8.57;;;4.20;99.90;;;;;;5155647;27;20043;-67
2022/11/22 06:12:44;;;;;;;19.55;9.00;;;4.70;99.90;;;;;;5155008;27;20079;-67
2022/11/22 06:15:10;;;;;;;15.10;8.70;;;3.80;99.90;;;;;;5152727;27;20039;-67
2022/11/22 06:17:35;;;;;;;14.20;8.32;;;4.50;99.90;;;;;;5134580;27;20090;-67
2022/11/22 06:20:01;;;;;;;16.95;8.60;;;4.20;99.90;;;;;;5135155;27;20047;-67
2022/11/22 06:22:27;;;;;;;16.20;8.45;;;3.90;99.90;;;;;;5116366;27;20055;-67
2022/11/22 06:24:52;;;;;;;16.25;8.25;;;3.80;99.90;;;;;;5134366;27;20064;-67
2022/11/22 06:27:18;;;;;;;16.92;8.80;;;4.00;99.90;;;;;;5134707;28;20482;-67
2022/11/22 06:29:44;;;;;;;14.68;9.43;;;4.40;99.90;;;;;;5115923;28;20039;-67
2022/11/22 06:32:10;;;;;;;15.98;9.27;;;4.10;99.90;;;;;;5115980;28;20130;-67
2022/11/22 06:34:35;;;;;;;15.80;8.40;;;3.90;99.90;;;;;;5116069;28;20127;-67
2022/11/22 06:37:01;;;;;;;17.80;9.20;;;4.40;99.90;;;;;;5116246;28;20130;-68
2022/11/22 06:39:27;;;;;;;14.50;8.13;;;4.90;99.90;;;;;;5134408;28;20039;-67
2022/11/22 06:41:52;;;;;;;16.90;9.52;;;4.20;99.90;;;;;;5116267;28;20520;-67
2022/11/22 06:44:18;;;;;;;15.75;9.15;;;4.50;99.90;;;;;;5116004;28;20383;-67
2022/11/22 06:46:44;;;;;;;14.60;8.05;;;4.10;99.90;;;;;;5134270;28;20062;-67
2022/11/22 06:49:09;;;;;;;19.75;9.60;;;4.10;99.90;;;;;;5134249;28;20043;-67
2022/11/22 06:51:35;;;;;;;16.48;9.43;;;4.20;99.90;;;;;;5133768;28;20062;-67
2022/11/22 06:54:01;;;;;;;19.17;9.55;;;4.50;99.90;;;;;;5134170;28;20053;-67
2022/11/22 06:56:38;;;;;;;18.73;9.85;;;4.30;99.90;;;;;;5134166;28;20133;-67
2022/11/22 06:59:05;;;;;;;16.10;8.93;;;4.10;99.90;;;;;;5134303;28;20101;-67
2022/11/22 07:01:32;;;;;;;15.80;9.02;;;4.30;99.90;;;;;;5133583;28;20046;-67
2022/11/22 07:03:59;;;;;;;14.15;9.23;;;4.70;99.90;;;;;;5115763;28;20072;-67
2022/11/22 07:06:27;;;;;;;14.85;8.20;;;4.10;99.90;;;;;;5133847;28;20047;-67
2022/11/22 07:08:53;;;;;;;14.57;8.57;;;4.50;99.90;;;;;;5098988;28;20051;-67
2022/11/22 07:11:25;;;;;;;14.10;7.95;;;4.40;99.90;;;;;;5116565;28;20795;-67
2022/11/22 07:13:51;;;;;;;16.75;9.32;;;4.30;99.90;;;;;;5134146;28;20100;-67
2022/11/22 07:16:19;;;;;;;15.05;9.07;;;5.10;99.90;;;;;;5137097;27;20043;-67
2022/11/22 07:18:45;;;;;;;16.10;9.20;;;4.80;99.90;;;;;;5138003;27;20051;-67
2022/11/22 07:21:14;;;;;;;18.35;9.52;;;4.60;99.90;;;;;;5138193;27;20070;-67
2022/11/22 07:23:45;;;;;;;16.88;9.55;;;4.30;99.90;;;;;;5137747;27;20367;-67
2022/11/22 07:26:11;;;;;;;16.10;8.77;;;4.70;99.90;;;;;;5137834;27;20047;-67
2022/11/22 07:28:37;;;;;;;14.93;9.27;;;4.80;99.90;;;;;;5137397;27;20491;-68
2022/11/22 07:31:05;;;;;;;14.82;9.10;;;5.00;99.90;;;;;;5137975;27;20079;-67
2022/11/22 07:33:31;;;;;;;14.15;8.85;;;4.40;99.90;;;;;;5118785;27;20055;-67
2022/11/22 07:36:07;;;;;;;16.27;8.63;;;4.40;99.90;;;;;;5137988;27;20144;-67
2022/11/22 07:38:33;;;;;;;15.27;8.68;;;4.50;99.90;;;;;;5138131;27;20047;-67
2022/11/22 07:40:59;;;;;;;17.77;9.20;;;4.60;99.90;;;;;;5137400;27;20069;-67
2022/11/22 07:43:24;;;;;;;13.18;8.68;;;5.00;99.90;;;;;;5137371;27;20039;-67
2022/11/22 07:45:50;;;;;;;16.08;8.98;;;4.40;99.90;;;;;;5137403;27;20463;-67
2022/11/22 07:48:16;;;;;;;23.05;11.48;;;4.90;99.90;;;;;;5119102;27;20046;-67
2022/11/22 07:50:41;;;;;;;15.98;9.38;;;4.60;99.90;;;;;;5137020;27;20148;-67
2022/11/22 07:53:08;;;;;;;15.02;8.50;;;5.20;99.90;;;;;;5137463;27;20043;-67
2022/11/22 07:55:35;;;;;;;14.45;8.40;;;4.70;99.90;;;;;;5137660;27;20078;-67
2022/11/22 07:58:01;;;;;;;21.05;10.13;;;4.50;99.90;;;;;;5118875;27;20090;-67
2022/11/22 08:00:27;;;;;;;17.73;10.02;;;4.70;99.90;;;;;;5137391;27;20050;-67
2022/11/22 08:02:53;;;;;;;19.15;10.13;;;4.50;99.90;;;;;;5118181;27;20039;-67
2022/11/22 08:05:20;;;;;;;18.02;9.65;;;4.60;99.90;;;;;;5119662;27;20054;-67
2022/11/22 08:07:47;;;;;;;14.63;9.00;;;4.90;99.90;;;;;;5137005;27;20043;-68
2022/11/22 08:10:12;;;;;;;18.20;9.98;;;5.80;99.90;;;;;;5137078;27;20127;-67
2022/11/22 08:12:38;;;;;;;17.85;9.35;;;4.40;99.90;;;;;;5137089;27;20039;-68
2022/11/22 08:15:04;;;;;;;15.15;8.40;;;4.90;99.90;;;;;;5136790;27;20078;-68
2022/11/22 08:17:30;;;;;;;14.07;8.82;;;4.50;99.90;;;;;;5118802;27;20383;-67
2022/11/22 08:19:56;;;;;;;19.10;8.98;;;5.00;99.90;;;;;;5136720;27;20039;-67
2022/11/22 08:22:21;;;;;;;17.70;8.85;;;5.10;99.90;;;;;;5136724;27;20134;-67
2022/11/22 08:24:47;;;;;;;17.35;8.07;;;4.70;99.90;;;;;;5136574;27;20065;-67
2022/11/22 08:27:13;;;;;;;15.68;8.70;;;5.00;99.90;;;;;;5117184;27;20044;-67
2022/11/22 08:29:38;;;;;;;15.27;7.78;;;5.30;99.90;;;;;;5101221;27;20066;-67
2022/11/22 08:32:04;;;;;;;16.23;8.20;;;5.00;99.90;;;;;;5135885;27;20043;-67
2022/11/22 08:34:30;;;;;;;16.67;8.13;;;4.90;99.90;;;;;;5136552;27;20050;-67
2022/11/22 08:36:55;;;;;;;15.20;7.68;;;5.30;99.90;;;;;;5136402;27;20540;-67
2022/11/22 08:39:21;;;;;;;13.23;7.47;;;4.90;99.90;;;;;;5084568;27;20399;-67
2022/11/22 08:41:47;;;;;;;14.00;7.65;;;5.00;99.90;;;;;;5136302;27;20398;-67
2022/11/22 08:44:13;;;;;;;15.00;7.43;;;5.60;99.90;;;;;;5136115;27;20126;-67
2022/11/22 08:46:38;;;;;;;15.20;7.43;;;5.80;99.90;;;;;;5136392;27;20054;-68
2022/11/22 08:49:05;;;;;;;14.05;7.80;;;5.40;99.90;;;;;;5136266;27;20050;-67
2022/11/22 08:51:32;;;;;;;11.32;5.93;;;5.30;99.90;;;;;;5136027;27;20112;-67
2022/11/22 08:53:58;;;;;;;13.73;5.70;;;5.30;99.90;;;;;;5136295;27;20047;-67
2022/11/22 08:56:24;;;;;;;12.20;6.15;;;5.20;99.90;;;;;;5136123;27;20432;-67
2022/11/22 08:58:49;;;;;;;12.07;5.82;;;5.20;99.90;;;;;;5117675;27;20047;-67
2022/11/22 09:01:17;;;;;;;10.82;5.65;;;5.20;99.90;;;;;;5135989;27;20454;-67
2022/11/22 09:03:44;;;;;;;12.88;5.18;;;5.40;99.90;;;;;;5135244;27;20039;-67
2022/11/22 09:06:16;;;;;;;10.95;5.15;;;5.50;99.90;;;;;;5135833;27;20043;-67
2022/11/22 09:08:41;;;;;;;10.77;5.25;;;5.20;99.90;;;;;;5135837;27;20043;-67
2022/11/22 09:11:10;;;;;;;13.35;5.28;;;5.50;99.90;;;;;;5135658;27;20072;-67
2022/11/22 09:13:37;;;;;;;13.70;4.85;;;5.40;99.90;;;;;;5135692;27;20035;-67
2022/11/22 09:16:24;;;;;;;13.45;5.47;;;5.60;99.90;;;;;;5135460;27;20046;-67
2022/11/22 09:18:50;;;;;;;11.70;3.78;;;5.50;99.90;;;;;;5135083;27;20062;-71
2022/11/22 09:21:18;;;;;;;9.30;4.20;;;5.80;99.90;;;;;;5100624;27;20050;-69
2022/11/22 09:23:46;;;;;;;9.20;3.47;;;5.50;99.90;;;;;;5083276;27;20035;-68
2022/11/22 09:26:14;;;;;;;11.35;4.10;;;5.40;99.90;;;;;;5135501;27;20522;-71
2022/11/22 09:28:40;;;;;;;13.55;4.22;;;6.20;99.90;;;;;;5117150;27;20126;-69
2022/11/22 09:31:09;;;;;;;12.88;3.42;;;5.70;99.90;;;;;;5135457;27;20133;-69
2022/11/22 09:33:37;;;;;;;8.85;3.40;;;5.70;99.90;;;;;;5134974;27;20043;-69
2022/11/22 09:36:08;;;;;;;11.05;3.28;;;6.40;99.90;;;;;;5116737;27;20483;-69
2022/11/22 09:38:35;;;;;;;7.57;2.88;;;5.50;99.90;;;;;;5134629;27;20496;-69
2022/11/22 09:41:29;;;;;;;8.65;2.97;;;5.70;99.90;;;;;;5116699;27;20495;-69
2022/11/22 09:44:16;;;;;;;7.45;2.13;;;5.80;99.90;;;;;;5135992;27;20082;-69
2022/11/22 09:47:09;;;;;;;9.48;2.47;;;6.00;99.90;;;;;;5135422;27;20484;-69
2022/11/22 09:50:09;;;;;;;10.52;2.30;;;5.90;99.90;;;;;;5116881;27;20035;-69
2022/11/22 09:52:56;;;;;;;5.78;2.10;;;6.00;99.90;;;;;;5117163;27;20086;-69
2022/11/22 09:55:35;;;;;;;7.25;1.38;;;5.90;99.90;;;;;;5117849;27;20053;-68
2022/11/22 09:58:10;;;;;;;6.88;1.77;;;6.20;99.90;;;;;;5116808;27;20047;-68
2022/11/22 10:00:35;;;;;;;8.30;1.67;;;6.90;99.90;;;;;;5116888;27;20391;-70
2022/11/22 10:03:13;;;;;;;10.38;2.13;;;6.00;99.90;;;;;;5116341;27;20054;-68
2022/11/22 10:06:02;;;;;;;8.75;2.28;;;6.10;99.90;;;;;;5135583;27;20467;-68
2022/11/22 10:08:47;;;;;;;8.18;2.08;;;6.20;99.90;;;;;;5135214;27;20372;-69
2022/11/22 10:11:33;;;;;;;6.70;1.40;;;6.30;99.90;;;;;;5134525;27;20054;-69
2022/11/22 10:14:03;;;;;;;8.63;2.30;;;6.10;99.90;;;;;;5134852;27;20043;-69
2022/11/22 10:16:46;;;;;;;7.10;1.70;;;6.20;99.90;;;;;;5116685;27;20046;-69
2022/11/22 10:19:19;;;;;;;9.25;1.50;;;6.10;99.90;;;;;;5134862;27;20046;-71
2022/11/22 10:21:48;;;;;;;9.40;2.28;;;6.10;99.90;;;;;;5127408;27;20113;-71
2022/11/22 10:24:15;;;;;;;4.90;2.35;;;6.40;99.90;;;;;;5145167;27;20034;-71
2022/11/22 10:26:41;;;;;;;5.72;1.08;;;6.00;99.90;;;;;;5109761;27;20543;-71
2022/11/22 10:29:56;;;;;;;6.45;1.50;;;6.50;99.90;;;;;;5125211;27;20054;-71
2022/11/22 10:32:41;;;;;;;7.50;1.45;;;6.80;99.90;;;;;;5104260;27;20059;-70
2022/11/22 10:35:25;;;;;;;7.95;1.13;;;6.80;99.90;;;;;;5145189;27;20495;-71
2022/11/22 10:38:17;;;;;;;5.75;1.10;;;6.10;99.90;;;;;;5125133;27;20040;-71
2022/11/22 10:40:55;;;;;;;6.35;1.13;;;5.80;99.90;;;;;;5123293;27;20478;-70
2022/11/22 10:43:46;;;;;;;3.72;1.13;;;6.60;99.90;;;;;;5109365;27;20035;-70
2022/11/22 10:46:17;;;;;;;7.32;1.30;;;6.70;99.90;;;;;;5149031;27;20058;-69
2022/11/22 10:49:05;;;;;;;4.03;1.30;;;6.20;99.90;;;;;;5125234;27;20541;-69
2022/11/22 10:51:34;;;;;;;7.68;1.30;;;6.30;99.90;;;;;;5145703;27;20125;-69
2022/11/22 10:54:02;;;;;;;6.43;1.08;;;6.30;99.90;;;;;;5146873;27;20046;-70
2022/11/22 10:56:39;;;;;;;6.20;0.95;;;6.30;99.90;;;;;;5149325;27;20047;-69
2022/11/22 10:59:17;;;;;;;6.63;1.42;;;6.50;99.90;;;;;;5149702;27;20051;-70
2022/11/22 11:02:02;;;;;;;4.63;1.42;;;6.50;99.90;;;;;;5128776;27;20038;-70
2022/11/22 11:04:32;;;;;;;3.58;0.88;;;6.70;99.90;;;;;;5149356;27;20043;-69
2022/11/22 11:07:00;;;;;;;4.50;0.60;;;6.50;99.90;;;;;;5147876;27;20112;-70
2022/11/22 11:09:48;;;;;;;2.25;0.65;;;6.70;99.90;;;;;;5147065;27;20043;-70
2022/11/22 11:12:34;;;;;;;5.60;0.80;;;6.40;99.90;;;;;;5147730;27;20072;-70
2022/11/22 11:15:14;;;;;;;1.48;0.80;;;6.50;99.90;;;;;;5129184;27;20122;-70
2022/11/22 11:17:43;;;;;;;2.35;0.73;;;6.50;99.90;;;;;;5148634;27;20049;-70
2022/11/22 11:20:34;;;;;;;4.55;0.80;;;6.60;99.90;;;;;;5154313;27;20087;-69
2022/11/22 11:22:59;;;;;;;3.83;0.70;;;6.70;99.90;;;;;;5129733;27;20039;-70
2022/11/22 11:25:33;;;;;;;3.90;0.93;;;6.70;99.90;;;;;;5146877;27;20115;-69
2022/11/22 11:28:07;;;;;;;8.93;0.70;;;6.60;99.90;;;;;;5129142;27;20103;-70
2022/11/22 11:30:44;;;;;;;2.85;0.70;;;6.90;99.90;;;;;;5147334;27;20043;-71
2022/11/22 11:33:23;;;;;;;2.85;0.57;;;6.70;99.90;;;;;;5109821;27;20078;-70
2022/11/22 11:35:51;;;;;;;4.30;0.80;;;6.60;99.90;;;;;;5146627;27;20079;-70
2022/11/22 11:38:55;;;;;;;3.03;0.70;;;7.10;99.90;;;;;;5128998;27;20058;-70
2022/11/22 11:41:29;;;;;;;2.88;0.60;;;6.80;99.90;;;;;;5109477;27;20425;-69
2022/11/22 11:43:59;;;;;;;5.20;0.75;;;7.60;99.90;;;;;;5146493;27;20046;-70
2022/11/22 11:46:27;;;;;;;3.38;0.80;;;7.30;99.90;;;;;;5127631;27;20043;-71
2022/11/22 11:48:55;;;;;;;6.32;0.77;;;7.10;99.90;;;;;;5147081;27;20043;-70
2022/11/22 11:51:38;;;;;;;3.38;0.70;;;6.80;99.90;;;;;;5128814;27;20119;-71
2022/11/22 11:54:16;;;;;;;5.50;0.70;;;7.10;99.90;;;;;;5147701;27;20623;-69
2022/11/22 11:56:48;;;;;;;4.50;0.70;;;6.80;99.90;;;;;;5147124;27;20043;-70
2022/11/22 11:59:37;;;;;;;2.33;0.60;;;6.80;99.90;;;;;;5145824;27;20383;-70
2022/11/22 12:02:21;;;;;;;5.95;0.70;;;6.80;99.90;;;;;;5119303;27;20039;-70
2022/11/22 12:04:55;;;;;;;5.90;0.80;;;6.90;99.90;;;;;;5147783;27;20428;-69
2022/11/22 12:07:40;;;;;;;4.80;0.80;;;6.90;99.90;;;;;;5146768;27;20051;-70
2022/11/22 12:10:29;;;;;;;3.42;0.80;;;7.00;99.90;;;;;;5126118;27;20688;-70
2022/11/22 12:13:32;;;;;;;6.07;0.63;;;7.00;99.90;;;;;;5144765;27;20080;-70
2022/11/22 12:16:23;;;;;;;2.13;0.60;;;7.00;99.90;;;;;;5146373;27;20035;-70
2022/11/22 12:19:16;;;;;;;7.97;1.40;;;6.90;99.90;;;;;;5147121;27;20045;-70
2022/11/22 12:22:02;;;;;;;2.10;0.70;;;7.10;99.90;;;;;;5128278;27;20039;-70
2022/11/22 12:25:35;;;;;;;3.05;0.70;;;7.20;99.90;;;;;;5144973;27;20035;-70
2022/11/22 12:28:27;;;;;;;5.65;0.70;;;7.00;99.90;;;;;;5042406;27;20049;-70
2022/11/22 12:31:05;;;;;;;3.22;0.77;;;7.00;99.90;;;;;;5139785;27;20383;-70
2022/11/22 12:33:55;;;;;;;3.03;0.65;;;7.10;99.90;;;;;;5144694;27;20050;-70
2022/11/22 12:36:28;;;;;;;7.10;1.15;;;7.40;99.90;;;;;;5143645;27;20043;-70
2022/11/22 12:38:58;;;;;;;5.68;1.00;;;7.00;99.90;;;;;;5146667;27;20043;-70
2022/11/22 12:41:27;;;;;;;3.58;0.80;;;7.10;99.90;;;;;;5146880;27;20039;-70
2022/11/22 12:43:54;;;;;;;4.35;1.08;;;7.60;99.90;;;;;;5126803;27;20072;-70
2022/11/22 12:46:25;;;;;;;5.78;1.02;;;7.60;99.90;;;;;;5145366;27;20049;-70
2022/11/22 12:48:59;;;;;;;3.50;0.90;;;7.00;99.90;;;;;;5126352;27;20077;-69
2022/11/22 12:51:41;;;;;;;4.05;0.80;;;7.10;99.90;;;;;;5144268;27;20043;-70
2022/11/22 12:54:16;;;;;;;5.55;0.95;;;7.00;99.90;;;;;;5125869;27;20495;-70
2022/11/22 12:56:44;;;;;;;5.18;0.90;;;7.00;99.90;;;;;;5143831;27;20405;-70
2022/11/22 12:59:10;;;;;;;8.45;1.75;;;7.00;99.90;;;;;;5125938;27;20066;-70
2022/11/22 13:01:36;;;;;;;3.17;0.90;;;6.90;99.90;;;;;;5145506;27;20474;-70
2022/11/22 13:04:10;;;;;;;2.38;0.68;;;7.20;99.90;;;;;;5146184;27;20046;-69
2022/11/22 13:07:14;;;;;;;5.07;0.75;;;7.10;99.90;;;;;;5110090;27;20072;-69
2022/11/22 13:10:00;;;;;;;2.58;0.88;;;7.10;99.90;;;;;;5110848;27;20165;-70
2022/11/22 13:12:31;;;;;;;1.90;0.65;;;6.90;99.90;;;;;;5148360;27;20505;-69
2022/11/22 13:14:58;;;;;;;3.15;0.70;;;7.30;99.90;;;;;;5143860;27;20039;-69
2022/11/22 13:17:28;;;;;;;3.67;0.70;;;7.40;99.90;;;;;;5125950;27;20077;-69
2022/11/22 13:20:18;;;;;;;4.43;0.82;;;7.10;99.90;;;;;;5126057;27;20035;-69
2022/11/22 13:23:19;;;;;;;4.72;0.60;;;6.90;99.90;;;;;;5145194;27;20062;-69